Weather observations for the past three days for
Cumberland
Imperial (Metric)
Date Time (cdt) Wind (mph) Vis. (mi.) Weather Sky Cond. Temperature (ºF) Relative Humidity Wind Chill (°F) Heat Index (°F) Pressure Precipitation (in)
Air Dwpt 6 hour altimeter (in) sea level (mb) 1 hr 3 hr 6 hr
Max. Min.
04 14:35 W 25 G 36 10.00 Partly Cloudy and Breezy SCT055 60.8 33.8 36% 29.47 0.0
04 14:15 W 21 G 29 10.00 Mostly Cloudy and Breezy SCT055 BKN110 59 35.6 42% 29.47 0.0
04 13:55 NW 21 G 29 10.00 Overcast and Breezy SCT055 OVC110 59 37.4 45% 29.46 0.0
04 13:35 W 23 G 31 10.00 Mostly Cloudy and Breezy SCT055 SCT065 BKN120 60.8 37.4 42% 29.45 0.0
04 13:15 W 21 G 31 10.00 Mostly Cloudy and Breezy SCT055 BKN110 60.8 35.6 39% 29.44 0.0
04 12:55 W 21 G 32 10.00 Overcast and Breezy BKN055 OVC120 60.8 35.6 39% 29.44 0.0
04 12:35 W 22 G 36 10.00 Partly Cloudy and Breezy SCT055 59 35.6 42% 29.44 0.0
04 12:15 W 23 G 31 10.00 Partly Cloudy and Breezy SCT055 60.8 35.6 39% 29.44 0.0
04 11:55 W 23 G 29 10.00 Partly Cloudy and Breezy SCT055 60.8 37.4 42% 29.44 0.0
04 11:35 W 18 G 29 10.00 Fair CLR 59 35.6 42% 29.43 0.0
04 11:15 W 20 G 26 10.00 Fair CLR 59 35.6 42% 29.42 0.0
04 10:55 W 20 G 26 10.00 Fair CLR 59 33.8 39% 29.42 0.0
04 10:35 NW 18 G 28 10.00 Fair CLR 59 35.6 42% 29.42 0.0
04 10:15 W 28 G 36 10.00 Fair and Windy CLR 59 32 36% 29.41 0.0
04 09:55 W 25 G 30 10.00 Fair and Breezy CLR 60.8 37.4 42% 29.4 0.0
04 09:35 W 17 G 29 10.00 Partly Cloudy SCT110 59 37.4 45% 29.4 0.0
04 09:15 W 29 G 38 10.00 Partly Cloudy and Windy SCT110 59 35.6 42% 29.4 0.0
04 08:55 W 21 G 31 10.00 Fair and Breezy CLR 59 41 51% 29.39 0.0
04 08:35 W 20 G 30 10.00 Fair CLR 59 39.2 48% 29.38 0.0
04 08:15 W 22 G 29 10.00 Fair and Breezy CLR 59 37.4 45% 29.37 0.0
04 07:55 W 17 G 24 10.00 Partly Cloudy SCT120 59 37.4 45% 29.37 0.0
04 07:35 W 16 G 25 10.00 Fair CLR 59 35.6 42% 29.37 0.0
04 07:15 W 20 G 26 10.00 Partly Cloudy SCT110 57.2 35.6 44% 29.36 0.0
04 06:55 SW 17 G 25 10.00 Mostly Cloudy BKN110 57.2 35.6 44% 29.35 0.0
04 06:35 SW 14 10.00 Mostly Cloudy BKN110 55.4 35.6 47% 29.36 0.0
04 06:15 SW 15 G 21 10.00 Partly Cloudy SCT090 SCT110 53.6 35.6 51% 29.35 0.0
04 05:55 SW 12 10.00 Overcast SCT090 OVC110 53.6 35.6 51% 29.37 0.0
04 05:35 SW 13 10.00 Mostly Cloudy BKN110 53.6 35.6 51% 29.37 0.0
04 05:15 SW 14 10.00 Partly Cloudy SCT110 53.6 35.6 51% 29.38 0.0
04 04:55 SW 14 10.00 Partly Cloudy SCT110 53.6 33.8 47% 29.39 0.0
04 04:15 SW 13 10.00 Fair CLR 53.6 35.6 51% 29.42 0.0
04 03:55 SW 12 10.00 Fair CLR 53.6 35.6 51% 29.42 0.0
04 03:35 SW 13 10.00 Fair CLR 53.6 35.6 51% 29.43 0.0
04 03:15 SW 13 10.00 Fair CLR 53.6 35.6 51% 29.44 0.0
04 02:55 SW 12 10.00 Fair CLR 51.8 35.6 54% 29.46 0.0
04 02:35 SW 12 10.00 Fair CLR 51.8 35.6 54% 29.47 0.0
04 02:15 SW 12 10.00 Fair CLR 51.8 35.6 54% 29.49 0.0
04 01:55 SW 10 10.00 Fair CLR 51.8 35.6 54% 29.5 0.0
04 01:35 SW 10 10.00 Fair CLR 51.8 35.6 54% 29.51 0.0
04 01:15 SW 10 10.00 Fair CLR 51.8 35.6 54% 29.52 0.0
04 00:55 SW 10 10.00 Fair CLR 51.8 35.6 54% 29.53 0.0
04 00:35 SW 7 10.00 Fair CLR 50 35.6 58% 48 29.54 0.0
04 00:15 SW 3 10.00 Fair CLR 48.2 35.6 62% 29.56 0.0
03 23:55 SW 7 10.00 Fair CLR 46.4 37.4 71% 43 29.57 0.0
03 23:35 S 5 10.00 Fair CLR 46.4 37.4 71% 45 29.58 0.0
03 23:15 SW 5 10.00 Fair CLR 46.4 37.4 71% 45 29.59 0.0
03 22:55 SW 5 10.00 Fair CLR 50 35.6 58% 49 29.6 0.0
03 22:35 SW 6 10.00 Fair CLR 51.8 35.6 54% 29.62 0.0
03 22:15 SW 5 10.00 Fair CLR 51.8 37.4 58% 29.63 0.0
03 21:55 SW 3 10.00 Fair CLR 50 37.4 62% 29.63 0.0
03 21:35 SW 3 10.00 Fair CLR 51.8 37.4 58% 29.63 0.0
03 21:15 SW 3 10.00 Fair CLR 53.6 37.4 54% 29.64 0.0
03 20:55 SW 3 10.00 Fair CLR 55.4 35.6 47% 29.64 0.0
03 20:35 S 5 10.00 Fair CLR 55.4 37.4 51% 29.64 0.0
03 20:15 SW 3 10.00 Fair CLR 57.2 37.4 48% 29.64 0.0
03 19:55 SW 5 10.00 Fair CLR 59 35.6 42% 29.64 0.0
03 19:35 W 6 10.00 Fair CLR 60.8 32 34% 29.65 0.0
03 19:15 W 13 10.00 Fair CLR 62.6 32 32% 29.65 0.0
03 18:50 W 15 10.00 Fair CLR 64.4 32 30% 29.65 0.0
03 18:35 W 16 G 22 10.00 Fair CLR 64.4 32 30% 29.65 0.0
03 18:15 NW 12 10.00 Fair CLR 66.2 32 28% 29.65 0.0
03 17:55 W 9 G 17 10.00 Fair CLR 68 30.2 24% 29.65 0.0
03 17:35 NW 10 G 23 10.00 Fair CLR 68 30.2 24% 29.65 0.0
03 17:15 W 15 10.00 Fair CLR 68 30.2 24% 29.65 0.0
03 16:55 NW 14 G 17 10.00 Fair CLR 68 28.4 23% 29.65 0.0
03 16:35 NW 14 G 22 10.00 Fair CLR 68 28.4 23% 29.65 0.0
03 16:15 NW 12 10.00 Fair CLR 68 30.2 24% 29.65 0.0
03 15:55 W 20 G 23 10.00 Fair CLR 68 30.2 24% 29.65 0.0
03 15:35 NW 13 G 23 10.00 Fair CLR 68 32 26% 29.66 0.0
03 15:15 NW 17 G 21 10.00 Fair CLR 68 32 26% 29.66 0.0
03 14:55 NW 15 10.00 Fair CLR 68 32 26% 29.66 0.0
03 14:35 NW 16 10.00 Fair CLR 68 33.8 28% 29.66 0.0
03 14:15 NW 13 G 25 10.00 Fair CLR 68 35.6 30% 29.67 0.0
03 13:35 NW 13 10.00 Fair CLR 68 37.4 33% 29.68 0.0
03 13:15 NW 14 G 24 10.00 Fair CLR 66.2 37.4 35% 29.68 0.0
03 12:55 NW 16 G 22 10.00 Fair CLR 66.2 41 40% 29.68 0.0
03 12:35 NW 15 G 22 10.00 Fair CLR 66.2 41 40% 29.69 0.0
03 12:15 NW 10 G 16 10.00 Fair CLR 64.4 39.2 40% 29.69 0.0
03 11:55 NW 9 G 17 10.00 Fair CLR 64.4 39.2 40% 29.69 0.0
03 11:35 NW 12 G 18 10.00 Fair CLR 64.4 39.2 40% 29.69 0.0
03 11:15 N 8 10.00 Fair CLR 64.4 37.4 37% 29.69 0.0
03 10:55 N 12 G 16 10.00 Fair CLR 62.6 41 45% 29.69 0.0
03 10:35 N 9 10.00 Fair CLR 62.6 41 45% 29.69 0.0
03 10:10 NW 12 G 17 10.00 Fair CLR 60.8 41 48% 29.69 0.0
03 09:55 NW 9 10.00 Fair CLR 60.8 39.2 45% 29.69 0.0
03 09:35 W 7 10.00 Fair CLR 59 41 51% 29.69 0.0
03 09:15 W 7 10.00 Fair CLR 59 41 51% 29.69 0.0
03 08:55 SW 6 10.00 Fair CLR 55.4 41 59% 29.69 0.0
03 08:35 SW 7 10.00 Fair CLR 55.4 42.8 63% 29.7 0.0
03 08:15 SW 6 10.00 Fair CLR 53.6 42.8 67% 29.7 0.0
03 07:35 S 3 10.00 Fair CLR 51.8 42.8 72% 29.69 0.0
03 07:15 S 3 10.00 Fair CLR 50 42.8 76% 29.69 0.0
03 06:55 S 6 10.00 Fair CLR 50 41 71% 48 29.69 0.0
03 06:35 S 5 10.00 Fair CLR 46.4 41 82% 45 29.69 0.0
03 06:15 S 6 10.00 Fair CLR 46.4 41 82% 44 29.68 0.0
03 05:55 S 6 10.00 Partly Cloudy SCT100 46.4 42.8 87% 44 29.69 0.0
03 05:35 S 5 10.00 Mostly Cloudy SCT090 BKN100 50 42.8 76% 49 29.69 0.0
03 05:15 SE 3 10.00 Overcast BKN090 OVC110 50 44.6 82% 29.69 0.0
03 04:55 SE 6 10.00 Overcast BKN090 OVC100 50 42.8 76% 48 29.7 0.0
03 04:35 SE 3 10.00 Overcast OVC090 51.8 42.8 72% 29.7 0.0
03 04:15 E 5 10.00 Light Rain SCT060 SCT070 OVC090 51.8 42.8 72% 29.71 0.0
03 03:55 SW 13 G 17 7.00 Light Rain SCT017 BKN090 OVC110 50 42.8 76% 46 29.71 0.0
03 03:35 W 5 10.00 Rain OVC100 51.8 41 67% 29.73 0.0
03 03:15 S 9 10.00 Light Rain SCT060 BKN070 OVC100 50 41 71% 47 29.72 0.0
03 02:55 S 5 10.00 Overcast SCT070 OVC080 50 41 71% 49 29.73 0.0
03 02:35 Calm 10.00 Overcast OVC080 50 41 71% 29.74 0.0
03 02:15 Calm 10.00 Mostly Cloudy SCT080 BKN100 50 41 71% 29.74 0.0
03 01:55 SE 3 10.00 Mostly Cloudy BKN100 50 41 71% 29.75 0.0
03 01:35 S 6 10.00 Overcast OVC090 51.8 41 67% 29.75 0.0
03 01:15 SE 5 10.00 Mostly Cloudy BKN090 53.6 39.2 58% 29.76 0.0
03 00:55 SE 6 10.00 Mostly Cloudy SCT060 SCT070 BKN090 53.6 41 63% 29.76 0.0
03 00:35 SE 6 10.00 Overcast BKN070 OVC080 53.6 41 63% 29.78 0.0
03 00:15 Calm 10.00 Overcast BKN080 BKN090 OVC110 53.6 41 63% 29.78 0.0
02 23:55 Calm 10.00 Overcast SCT060 OVC110 55.4 41 59% 29.79 0.0
02 23:35 W 10 10.00 Light Rain SCT060 SCT080 OVC090 55.4 39.2 55% 29.8 0.0
02 23:15 W 8 10.00 Overcast SCT075 OVC100 55.4 37.4 51% 29.81 0.0
02 22:55 SW 7 10.00 Overcast OVC075 53.6 42.8 67% 29.81 0.0
02 22:35 S 6 10.00 Overcast BKN075 OVC110 55.4 41 59% 29.81 0.0
02 22:15 SW 5 10.00 Overcast BKN075 OVC085 55.4 39.2 55% 29.82 0.0
02 21:55 W 5 10.00 Overcast OVC075 57.2 37.4 48% 29.82 0.0
02 21:35 Calm 10.00 Overcast OVC075 55.4 41 59% 29.82 0.0
02 21:15 W 7 10.00 Overcast SCT075 OVC100 55.4 41 59% 29.83 0.0
02 20:55 SW 10 10.00 Overcast OVC090 59 37.4 45% 29.83 0.0
02 20:35 SW 9 10.00 Overcast SCT075 OVC090 57.2 39.2 51% 29.83 0.0
02 20:15 SW 9 10.00 Overcast BKN075 OVC090 57.2 37.4 48% 29.83 0.0
02 19:55 S 8 10.00 Mostly Cloudy SCT100 BKN120 55.4 41 59% 29.84 0.0
02 19:35 S 6 10.00 Partly Cloudy SCT090 SCT120 57.2 39.2 51% 29.84 0.0
02 19:15 SW 8 10.00 Partly Cloudy SCT090 SCT120 59 37.4 45% 29.84 0.0
02 18:35 SW 8 10.00 Fair CLR 59 35.6 42% 29.86 0.0
02 18:15 SW 9 10.00 Fair CLR 60.8 35.6 39% 29.86 0.0
02 17:55 SW 9 10.00 Fair CLR 60.8 33.8 36% 29.87 0.0
02 17:35 SW 13 G 16 10.00 Partly Cloudy SCT100 59 33.8 39% 29.87 0.0
02 17:15 SW 12 10.00 Mostly Cloudy BKN100 59 33.8 39% 29.88 0.0
02 16:55 W 12 G 18 10.00 Partly Cloudy SCT100 60.8 33.8 36% 29.89 0.0
02 16:35 SW 15 G 20 10.00 Partly Cloudy SCT100 60.8 33.8 36% 29.89 0.0
02 16:15 W 16 G 20 10.00 Partly Cloudy SCT100 60.8 33.8 36% 29.9 0.0
02 15:35 W 10 10.00 Mostly Cloudy BKN100 59 32 36% 29.92 0.0
02 15:15 W 10 G 18 10.00 Partly Cloudy SCT100 60.8 32 34% 29.93 0.0
02 14:55 SW 9 10.00 Fair CLR 60.8 33.8 36% 29.94 0.0
02 14:35 SW 7 G 17 10.00 Partly Cloudy SCT080 59 32 36% 29.95 0.0
02 14:10 W 9 G 22 10.00 Partly Cloudy SCT080 59 32 36% 29.96 0.0
02 13:35 W 14 G 18 10.00 Partly Cloudy SCT080 57.2 32 39% 29.97 0.0
02 13:15 W 14 G 20 10.00 Fair CLR 57.2 32 39% 29.98 0.0
02 12:55 W 10 G 16 10.00 Fair CLR 57.2 30.2 36% 29.99 0.0
02 12:35 W 10 10.00 Fair CLR 55.4 30.2 38% 30 0.0
02 12:15 W 5 10.00 Fair CLR 55.4 30.2 38% 30 0.0
02 11:55 W 13 G 18 10.00 Fair CLR 55.4 28.4 36% 30.01 0.0
02 11:30 NW 9 G 20 10.00 Fair CLR 55.4 30.2 38% 30.02 0.0
02 11:15 NW 10 G 16 10.00 Fair CLR 53.6 26.6 35% 30.02 0.0
02 10:55 W 15 G 18 10.00 Fair CLR 53.6 28.4 38% 30.03 0.0
02 10:35 W 15 G 21 10.00 Fair CLR 53.6 28.4 38% 30.03 0.0
02 10:10 NW 6 10.00 Fair CLR 51.8 26.6 38% 30.04 0.0
02 09:55 NW 10 10.00 Fair CLR 51.8 28.4 41% 30.04 0.0
02 09:35 NW 10 10.00 Fair CLR 51.8 30.2 44% 30.05 0.0
02 09:15 W 9 10.00 Fair CLR 50 30.2 47% 47 30.05 0.0
02 08:55 W 7 10.00 Fair CLR 48.2 32 54% 46 30.05 0.0
02 08:35 W 3 10.00 Fair CLR 44.6 32 61% 30.05 0.0
02 07:55 Calm 10.00 Fair CLR 37.4 32 81% 30.05 0.0
02 07:35 Calm 10.00 Fair CLR 35.6 30.2 81% 30.05 0.0
02 07:15 Calm 10.00 Fair CLR 33.8 30.2 87% 30.05 0.0
02 06:55 Calm 10.00 Fair CLR 33.8 30.2 87% 30.05 0.0
02 06:35 Calm 10.00 Fair CLR 32 28.4 87% 30.05 0.0
02 06:15 Calm 10.00 Fair CLR 32 28.4 87% 30.05 0.0
02 05:55 Calm 10.00 Fair CLR 33.8 26.6 75% 30.05 0.0
02 05:35 Calm 10.00 Fair CLR 33.8 28.4 81% 30.05 0.0
02 05:15 Calm 10.00 Fair CLR 33.8 26.6 75% 30.05 0.0
02 04:55 Calm 10.00 Fair CLR 35.6 26.6 70% 30.06 0.0
02 04:35 Calm 10.00 Fair CLR 35.6 24.8 65% 30.06 0.0
02 04:15 SE 3 10.00 Fair CLR 35.6 24.8 65% 30.06 0.0
02 03:55 Calm 10.00 Fair CLR 35.6 24.8 65% 30.06 0.0
02 03:35 Calm 10.00 Fair CLR 35.6 26.6 70% 30.06 0.0
02 03:15 Calm 10.00 Fair CLR 37.4 23 56% 30.06 0.0
02 02:55 Calm 10.00 Fair CLR 37.4 26.6 65% 30.06 0.0
02 02:35 Calm 10.00 Fair CLR 37.4 26.6 65% 30.06 0.0
02 02:15 SE 3 10.00 Fair CLR 37.4 26.6 65% 30.07 0.0
02 01:55 SE 5 10.00 Fair CLR 37.4 26.6 65% 34 30.07 0.0
02 01:35 SE 5 10.00 Partly Cloudy SCT085 37.4 28.4 70% 34 30.08 0.0
02 01:15 SE 6 10.00 Fair CLR 39.2 28.4 65% 36 30.08 0.0
02 00:55 SE 5 10.00 Fair CLR 39.2 28.4 65% 36 30.08 0.0
02 00:35 SE 3 10.00 Partly Cloudy SCT090 39.2 30.2 70% 30.08 0.0
02 00:15 E 3 10.00 Fair CLR 39.2 28.4 65% 30.08 0.0
01 23:55 E 3 10.00 Partly Cloudy SCT090 41 28.4 61% 30.08 0.0
01 23:35 Calm 10.00 Partly Cloudy SCT090 39.2 30.2 70% 30.08 0.0
01 23:15 Calm 10.00 Partly Cloudy SCT090 41 32 70% 30.08 0.0
01 22:55 Calm 10.00 Partly Cloudy SCT100 41 32 70% 30.08 0.0
01 22:35 Calm 10.00 Partly Cloudy SCT100 42.8 30.2 61% 30.08 0.0
01 22:15 Calm 10.00 Partly Cloudy SCT100 42.8 32 66% 30.08 0.0
01 21:55 Calm 10.00 Partly Cloudy SCT100 42.8 32 66% 30.08 0.0
01 21:35 Calm 10.00 Partly Cloudy SCT100 44.6 32 61% 30.07 0.0
01 21:15 SW 3 10.00 Overcast OVC100 44.6 35.6 71% 30.07 0.0
01 20:55 Calm 10.00 Overcast OVC100 46.4 24.8 43% 30.06 0.0
01 20:35 Calm 10.00 Overcast OVC100 46.4 28.4 50% 30.06 0.0
01 20:15 Calm 10.00 Overcast OVC090 48.2 28.4 46% 30.06 0.0
01 19:55 Calm 10.00 Overcast OVC090 48.2 26.6 43% 30.05 0.0
01 19:35 Calm 10.00 Mostly Cloudy BKN090 50 23 35% 30.05 0.0
01 19:15 N 5 10.00 Mostly Cloudy BKN090 50 24.8 37% 49 30.05 0.0
01 18:55 Calm 10.00 Partly Cloudy SCT090 50 23 35% 30.05 0.0
01 18:35 NW 5 10.00 Partly Cloudy SCT090 50 23 35% 49 30.05 0.0
01 18:15 N 5 10.00 Partly Cloudy SCT090 50 24.8 37% 49 30.05 0.0
01 17:55 N 7 10.00 Mostly Cloudy BKN090 50 23 35% 48 30.05 0.0
01 17:35 NE 5 10.00 Mostly Cloudy SCT075 BKN090 50 23 35% 49 30.05 0.0
01 17:15 NE 7 10.00 Overcast SCT075 OVC090 51.8 24.8 35% 30.05 0.0
01 16:55 N 10 10.00 Overcast OVC080 50 23 35% 46 30.05 0.0
01 16:35 N 9 10.00 Overcast OVC080 50 23 35% 47 30.05 0.0
01 16:15 N 10 10.00 Mostly Cloudy BKN080 51.8 23 32% 30.05 0.0
01 15:55 N 13 10.00 Mostly Cloudy BKN070 51.8 23 32% 30.05 0.0
01 15:35 NW 7 10.00 Partly Cloudy SCT070 51.8 23 32% 30.06 0.0
01 15:15 NE 7 10.00 Partly Cloudy SCT070 50 24.8 37% 48 30.06 0.0
01 14:55 N 14 10.00 Partly Cloudy SCT070 50 26.6 40% 45 30.06 0.0
Date Time (cdt) Wind (mph) Vis. (mi.) Weather Sky Cond. Air Dwpt Max. Min. Relative Humidity Wind Chill (°F) Heat Index (°F) altimeter (in) sea level (mb) 1 hr 3 hr 6 hr
6 hour
Temperature (ºF) Pressure Precipitation (in)